Time;durP1;ratioP1;P1;durP2;ratioP2;P2;SDS_P1;SDS_P2;PMS_P1;PMS_P2;Temp;Humidity;BMP_temperature;BMP_pressure;BME280_temperature;BME280_humidity;BME280_pressure;Samples;Min_cycle;Max_cycle;Signal;HPM_P1;HPM_P2
2022/11/08 05:31:54;;;;;;;;;2.67;1.00;;;;;-147.14;100.00;58812.66;5264073;23;45614;-58
2022/11/08 05:34:19;;;;;;;;;3.67;3.00;;;;;-147.14;100.00;58812.66;4998599;28;45463;-59
2022/11/08 05:36:44;;;;;;;;;2.00;2.00;;;;;-147.14;100.00;58812.66;5000449;28;74201;-60
2022/11/08 05:39:10;;;;;;;;;2.67;2.67;;;;;-147.14;100.00;58812.66;4997963;28;67771;-59
2022/11/08 05:41:35;;;;;;;;;3.67;3.00;;;;;-147.14;100.00;58812.66;5003514;28;45936;-59
2022/11/08 05:44:00;;;;;;;;;3.67;3.67;;;;;-147.14;100.00;58812.66;4998342;28;45455;-59
2022/11/08 05:46:26;;;;;;;;;4.00;4.00;;;;;-147.14;100.00;58812.66;4997650;28;75004;-59
2022/11/08 05:48:51;;;;;;;;;5.33;2.00;;;;;-147.14;100.00;58812.66;4995446;28;68856;-59
2022/11/08 05:51:18;;;;;;;;;4.33;2.00;;;;;-147.14;100.00;58812.66;4997709;28;45494;-59
2022/11/08 05:53:45;;;;;;;;;4.00;3.00;;;;;-147.14;100.00;58812.66;4995355;28;46572;-59
2022/11/08 05:56:11;;;;;;;;;5.67;3.00;;;;;-147.14;100.00;58812.66;4991137;28;46245;-59
2022/11/08 05:58:36;;;;;;;;;3.67;2.67;;;;;-147.14;100.00;58812.66;4997174;28;71147;-59
2022/11/08 06:01:07;;;;;;;;;3.00;2.67;;;;;-147.14;100.00;58812.66;4993745;28;45270;-59
2022/11/08 06:03:32;;;;;;;;;2.00;2.00;;;;;-147.14;100.00;58812.66;4989864;28;45323;-59
2022/11/08 06:06:09;;;;;;;;;3.00;3.00;;;;;-147.14;100.00;58812.66;4991630;28;65590;-59
2022/11/08 06:08:35;;;;;;;;;1.67;1.67;;;;;-147.14;100.00;58812.66;4991271;28;45748;-60
2022/11/08 06:11:02;;;;;;;;;4.00;3.00;;;;;-147.14;100.00;58812.66;4997797;28;45601;-59
2022/11/08 06:13:27;;;;;;;;;2.33;2.33;;;;;-147.14;100.00;58812.66;4992996;28;45377;-60
2022/11/08 06:15:53;;;;;;;;;2.00;2.00;;;;;-147.14;100.00;58812.66;4991181;28;72012;-59
2022/11/08 06:18:18;;;;;;;;;3.00;3.00;;;;;-147.14;100.00;58812.66;4991073;28;72247;-59
2022/11/08 06:20:43;;;;;;;;;6.00;4.00;;;;;-147.14;100.00;58812.66;4991597;28;66380;-59
2022/11/08 06:23:09;;;;;;;;;3.00;3.00;;;;;-147.14;100.00;58812.66;4997045;28;66389;-59
2022/11/08 06:25:36;;;;;;;;;3.00;2.00;;;;;-147.14;100.00;58812.66;4989165;28;69298;-59
2022/11/08 06:28:01;;;;;;;;;4.33;3.00;;;;;-147.14;100.00;58812.66;4991235;28;45477;-59
2022/11/08 06:30:26;;;;;;;;;4.67;2.67;;;;;-147.14;100.00;58812.66;4990091;28;64901;-59
2022/11/08 06:32:52;;;;;;;;;2.33;2.00;;;;;-147.14;100.00;58812.66;4991353;28;46775;-59
2022/11/08 06:35:17;;;;;;;;;4.00;2.33;;;;;-147.14;100.00;58812.66;4980021;28;46936;-60
2022/11/08 06:37:43;;;;;;;;;3.00;3.00;;;;;-147.14;100.00;58812.66;4995909;28;67053;-60
2022/11/08 06:40:09;;;;;;;;;3.00;3.00;;;;;-147.14;100.00;58812.66;4982525;28;45504;-59
2022/11/08 06:42:34;;;;;;;;;4.00;4.00;;;;;-147.14;100.00;58812.66;4997307;28;45489;-60
2022/11/08 06:45:00;;;;;;;;;5.33;2.00;;;;;-147.14;100.00;58812.66;5000429;28;46299;-60
2022/11/08 06:47:25;;;;;;;;;4.67;3.00;;;;;-147.14;100.00;58812.66;5000212;28;60730;-60
2022/11/08 06:49:51;;;;;;;;;3.00;3.00;;;;;-147.14;100.00;58812.66;5000297;28;52786;-60
2022/11/08 06:52:16;;;;;;;;;4.67;3.00;;;;;-147.14;100.00;58812.66;4999391;28;45347;-60
2022/11/08 06:54:41;;;;;;;;;4.00;3.00;;;;;-147.14;100.00;58812.66;4996367;28;69568;-60
2022/11/08 06:57:07;;;;;;;;;6.33;5.67;;;;;-147.14;100.00;58812.66;4985561;28;70884;-60
2022/11/08 06:59:32;;;;;;;;;4.00;3.00;;;;;-147.14;100.00;58812.66;4985115;28;64545;-60
2022/11/08 07:01:57;;;;;;;;;2.67;2.67;;;;;-147.14;100.00;58812.66;4993326;28;59678;-60
2022/11/08 07:04:23;;;;;;;;;2.67;2.67;;;;;-147.14;100.00;58812.66;4980521;28;45971;-60
2022/11/08 07:06:48;;;;;;;;;3.00;3.00;;;;;-147.14;100.00;58812.66;4997266;28;46456;-60
2022/11/08 07:09:13;;;;;;;;;3.67;3.33;;;;;-147.14;100.00;58812.66;5000593;28;45312;-61
2022/11/08 07:11:39;;;;;;;;;3.00;3.00;;;;;-147.14;100.00;58812.66;4987880;28;45412;-61
2022/11/08 07:14:04;;;;;;;;;2.67;2.67;;;;;-147.14;100.00;58812.66;4998013;28;67589;-67
2022/11/08 07:16:30;;;;;;;;;3.00;3.00;;;;;-147.14;100.00;58812.66;4994630;28;61714;-68
2022/11/08 07:18:55;;;;;;;;;3.67;3.67;;;;;-147.14;100.00;58812.66;4991528;28;45698;-70
2022/11/08 07:21:21;;;;;;;;;2.33;2.33;;;;;-147.14;100.00;58812.66;4996427;28;61001;-70
2022/11/08 07:23:47;;;;;;;;;3.00;3.00;;;;;-147.14;100.00;58812.66;4999613;28;45976;-69
2022/11/08 07:26:13;;;;;;;;;3.67;3.00;;;;;-147.14;100.00;58812.66;4996759;28;45653;-70
2022/11/08 07:28:38;;;;;;;;;4.00;2.00;;;;;-147.14;100.00;58812.66;4991846;28;45595;-69
2022/11/08 07:31:04;;;;;;;;;4.00;4.00;;;;;-147.14;100.00;58812.66;4999777;28;45483;-68
2022/11/08 07:33:29;;;;;;;;;2.67;2.00;;;;;-147.14;100.00;58812.66;4989796;28;45582;-68
2022/11/08 07:35:55;;;;;;;;;4.00;2.33;;;;;-147.14;100.00;58812.66;4988395;28;67253;-71
2022/11/08 07:38:21;;;;;;;;;4.00;3.00;;;;;-147.14;100.00;58812.66;4989680;28;45334;-69
2022/11/08 07:40:47;;;;;;;;;4.00;4.00;;;;;-147.14;100.00;58812.66;4994108;28;45645;-69
2022/11/08 07:43:12;;;;;;;;;3.00;3.00;;;;;-147.14;100.00;58812.66;4995951;28;46284;-69
2022/11/08 07:45:38;;;;;;;;;5.33;4.00;;;;;-147.14;100.00;58812.66;4998437;28;45499;-69
2022/11/08 07:48:06;;;;;;;;;5.00;3.67;;;;;-147.14;100.00;58812.66;5000417;28;45415;-69
2022/11/08 07:50:31;;;;;;;;;4.00;4.00;;;;;-147.14;100.00;58812.66;4998255;28;45578;-68
2022/11/08 07:52:57;;;;;;;;;5.33;4.00;;;;;-147.14;100.00;58812.66;4998399;28;45864;-69
2022/11/08 07:55:24;;;;;;;;;3.00;3.00;;;;;-147.14;100.00;58812.66;4997942;28;45472;-69
2022/11/08 07:57:50;;;;;;;;;4.00;3.67;;;;;-147.14;100.00;58812.66;4995163;28;45484;-68
2022/11/08 08:00:15;;;;;;;;;3.33;3.00;;;;;-147.14;100.00;58812.66;4999834;28;45436;-69
2022/11/08 08:02:41;;;;;;;;;5.00;5.00;;;;;-147.14;100.00;58812.66;4999693;28;46312;-68
2022/11/08 08:05:07;;;;;;;;;6.00;4.67;;;;;-147.14;100.00;58812.66;4979101;28;45303;-69
2022/11/08 08:07:34;;;;;;;;;5.00;4.00;;;;;-147.14;100.00;58812.66;4994325;28;45529;-68
2022/11/08 08:09:59;;;;;;;;;6.67;5.33;;;;;-147.14;100.00;58812.66;4999083;28;45478;-68
2022/11/08 08:12:26;;;;;;;;;6.67;5.00;;;;;-147.14;100.00;58812.66;4997712;28;47351;-69
2022/11/08 08:14:51;;;;;;;;;2.67;2.67;;;;;-147.14;100.00;58812.66;4981099;28;45409;-69
2022/11/08 08:17:16;;;;;;;;;6.00;4.00;;;;;-147.14;100.00;58812.66;4997703;28;49952;-69
2022/11/08 08:19:42;;;;;;;;;4.00;3.33;;;;;-147.14;100.00;58812.66;4993726;28;51309;-69
2022/11/08 08:22:07;;;;;;;;;4.00;4.00;;;;;-147.14;100.00;58812.66;4998488;28;73571;-68
2022/11/08 08:24:32;;;;;;;;;5.00;4.33;;;;;-147.14;100.00;58812.66;4997101;28;71405;-69
2022/11/08 08:26:58;;;;;;;;;4.33;4.33;;;;;-147.14;100.00;58812.66;4996824;28;58252;-69
2022/11/08 08:29:23;;;;;;;;;6.33;4.67;;;;;-147.14;100.00;58812.66;4996292;28;64639;-69
2022/11/08 08:31:48;;;;;;;;;4.00;4.00;;;;;-147.14;100.00;58812.66;4997062;28;45340;-68
2022/11/08 08:34:17;;;;;;;;;6.00;5.00;;;;;-147.14;100.00;58812.66;4998694;28;45385;-69
2022/11/08 08:36:43;;;;;;;;;7.67;4.67;;;;;-147.14;100.00;58812.66;4999003;28;46088;-69
2022/11/08 08:39:08;;;;;;;;;5.00;5.00;;;;;-147.14;100.00;58812.66;4988343;28;45444;-68
2022/11/08 08:41:34;;;;;;;;;4.00;4.00;;;;;-147.14;100.00;58812.66;4998075;28;48039;-68
2022/11/08 08:43:59;;;;;;;;;5.00;2.33;;;;;-147.14;100.00;58812.66;4993755;28;63071;-69
2022/11/08 08:46:24;;;;;;;;;6.67;4.67;;;;;-147.14;100.00;58812.66;4998676;28;59187;-69
2022/11/08 08:48:50;;;;;;;;;3.67;2.00;;;;;-147.14;100.00;58812.66;4997149;28;68575;-69
2022/11/08 08:51:15;;;;;;;;;2.67;2.67;;;;;-147.14;100.00;58812.66;4993489;28;60046;-68
2022/11/08 08:53:40;;;;;;;;;4.33;3.00;;;;;-147.14;100.00;58812.66;4997656;28;46232;-69
2022/11/08 08:56:07;;;;;;;;;2.67;2.67;;;;;-147.14;100.00;58812.66;4992654;28;45412;-68
2022/11/08 08:58:32;;;;;;;;;2.00;1.67;;;;;-147.14;100.00;58812.66;4994753;28;45404;-68
2022/11/08 09:01:03;;;;;;;;;1.67;1.67;;;;;-147.14;100.00;58812.66;4997559;28;72740;-68
2022/11/08 09:03:28;;;;;;;;;3.33;3.00;;;;;-147.14;100.00;58812.66;4999415;28;45551;-68
2022/11/08 09:05:56;;;;;;;;;3.00;2.00;;;;;-147.14;100.00;58812.66;4996968;28;47422;-68
2022/11/08 09:08:21;;;;;;;;;5.00;2.67;;;;;-147.14;100.00;58812.66;4999067;28;45455;-68
2022/11/08 09:10:52;;;;;;;;;3.00;3.00;;;;;-147.14;100.00;58812.66;4998422;28;45675;-69
2022/11/08 09:13:17;;;;;;;;;3.00;2.67;;;;;-147.14;100.00;58812.66;4997773;28;45492;-68
2022/11/08 09:15:42;;;;;;;;;2.67;2.33;;;;;-147.14;100.00;58812.66;5013591;28;51674;-68
2022/11/08 09:18:08;;;;;;;;;4.00;2.67;;;;;-147.14;100.00;58812.66;4998443;28;66525;-68
2022/11/08 09:20:33;;;;;;;;;3.67;2.67;;;;;-147.14;100.00;58812.66;4998826;28;45444;-68
2022/11/08 09:23:03;;;;;;;;;2.00;1.67;;;;;-147.14;100.00;58812.66;4996313;28;45669;-68
2022/11/08 09:25:28;;;;;;;;;3.00;3.00;;;;;-147.14;100.00;58812.66;4999012;28;45219;-68
2022/11/08 09:27:54;;;;;;;;;2.67;1.33;;;;;-147.14;100.00;58812.66;4997184;28;45301;-68
2022/11/08 09:30:19;;;;;;;;;1.67;1.67;;;;;-147.14;100.00;58812.66;4997190;28;46075;-68
2022/11/08 09:32:45;;;;;;;;;4.00;2.67;;;;;-147.14;100.00;58812.66;4997960;28;45336;-68
2022/11/08 09:35:10;;;;;;;;;1.67;1.67;;;;;-147.14;100.00;58812.66;4997895;28;63568;-68
2022/11/08 09:37:35;;;;;;;;;2.33;2.33;;;;;-147.14;100.00;58812.66;4998745;28;45333;-68
2022/11/08 09:40:01;;;;;;;;;3.00;2.33;;;;;-147.14;100.00;58812.66;4997282;28;59665;-68
2022/11/08 09:42:29;;;;;;;;;8.67;2.33;;;;;-147.14;100.00;58812.66;4992907;28;45262;-68
2022/11/08 09:44:57;;;;;;;;;3.00;3.00;;;;;-147.14;100.00;58812.66;4997179;28;45401;-68
2022/11/08 09:47:26;;;;;;;;;4.00;2.33;;;;;-147.14;100.00;58812.66;4989210;28;45508;-68
2022/11/08 09:50:20;;;;;;;;;5.67;3.00;;;;;-147.14;100.00;58812.66;5007510;28;45508;-68
2022/11/08 09:52:56;;;;;;;;;4.67;4.00;;;;;-147.14;100.00;58812.66;4992772;28;45297;-68
2022/11/08 09:55:25;;;;;;;;;2.00;2.00;;;;;-147.14;100.00;58812.66;4995384;28;45559;-68
2022/11/08 09:57:55;;;;;;;;;3.00;1.67;;;;;-147.14;100.00;58812.66;4986451;28;45385;-68
2022/11/08 10:00:21;;;;;;;;;3.67;3.33;;;;;-147.14;100.00;58812.66;4997059;28;45520;-69
2022/11/08 10:02:47;;;;;;;;;3.00;1.67;;;;;-147.14;100.00;58812.66;4995792;28;45414;-68
2022/11/08 10:05:15;;;;;;;;;3.00;1.67;;;;;-147.14;100.00;58812.66;4989182;28;45531;-68
2022/11/08 10:07:49;;;;;;;;;3.67;2.67;;;;;-147.14;100.00;58812.66;4985576;28;45382;-68
2022/11/08 10:10:36;;;;;;;;;3.00;1.00;;;;;-147.14;100.00;58812.66;4996907;28;47142;-68
2022/11/08 10:13:10;;;;;;;;;3.67;2.00;;;;;-147.14;100.00;58812.66;4985223;28;45479;-68
2022/11/08 10:15:42;;;;;;;;;5.00;3.67;;;;;-147.14;100.00;58812.66;4997313;28;45325;-68
2022/11/08 10:18:30;;;;;;;;;2.67;2.00;;;;;-147.14;100.00;58812.66;4990075;28;45385;-68
2022/11/08 10:21:04;;;;;;;;;3.33;3.00;;;;;-147.14;100.00;58812.66;4999760;28;46051;-69
2022/11/08 10:23:42;;;;;;;;;3.50;2.50;;;;;-147.14;100.00;58812.66;4984118;28;45358;-68
2022/11/08 10:26:19;;;;;;;;;6.00;5.00;;;;;-147.14;100.00;58812.66;4990198;28;45428;-68
2022/11/08 10:28:50;;;;;;;;;4.25;3.00;;;;;-147.14;100.00;58812.66;5000572;28;45580;-68
2022/11/08 10:31:18;;;;;;;;;3.00;3.00;;;;;-147.14;100.00;58812.66;5016439;28;46419;-68
2022/11/08 10:33:57;;;;;;;;;4.00;1.50;;;;;-147.14;100.00;58812.66;4999676;28;45370;-67
2022/11/08 10:36:28;;;;;;;;;1.25;1.25;;;;;-147.14;100.00;58812.66;5001378;28;45377;-68
2022/11/08 10:39:11;;;;;;;;;1.75;1.75;;;;;-147.14;100.00;58812.66;4997743;28;45541;-69
2022/11/08 10:41:51;;;;;;;;;2.00;2.00;;;;;-147.14;100.00;58812.66;4999152;28;45440;-67
2022/11/08 10:44:23;;;;;;;;;3.00;2.25;;;;;-147.14;100.00;58812.66;4997320;28;45370;-67
2022/11/08 10:46:54;;;;;;;;;2.50;2.00;;;;;-147.14;100.00;58812.66;4999764;28;45387;-67
2022/11/08 10:49:23;;;;;;;;;2.00;0.00;;;;;-147.14;100.00;58812.66;5001218;28;45507;-68
2022/11/08 10:51:52;;;;;;;;;4.00;2.00;;;;;-147.14;100.00;58812.66;5000240;28;46226;-68
2022/11/08 10:54:43;;;;;;;;;1.75;1.75;;;;;-147.14;100.00;58812.66;5001030;28;45424;-67
2022/11/08 10:57:10;;;;;;;;;2.00;2.00;;;;;-147.14;100.00;58812.66;5001035;28;45210;-67
2022/11/08 10:59:36;;;;;;;;;3.50;2.00;;;;;-147.14;100.00;58812.66;5001377;28;45512;-67
2022/11/08 11:02:01;;;;;;;;;2.50;1.75;;;;;-147.14;100.00;58812.66;4999790;28;69342;-67
2022/11/08 11:04:30;;;;;;;;;3.75;1.00;;;;;-147.14;100.00;58812.66;5001223;28;45396;-68
2022/11/08 11:07:02;;;;;;;;;2.25;2.25;;;;;-147.14;100.00;58812.66;5000409;28;45439;-67
2022/11/08 11:09:28;;;;;;;;;6.75;1.00;;;;;-147.14;100.00;58812.66;5001172;28;45277;-68
2022/11/08 11:12:01;;;;;;;;;4.25;2.00;;;;;-147.14;100.00;58812.66;5000285;28;46409;-67
2022/11/08 11:14:26;;;;;;;;;3.00;3.00;;;;;-147.14;100.00;58812.66;4991361;28;45373;-67
2022/11/08 11:17:13;;;;;;;;;2.25;2.00;;;;;-147.14;100.00;58812.66;5000516;28;45671;-68
2022/11/08 11:19:43;;;;;;;;;2.00;2.00;;;;;-147.14;100.00;58812.66;5000614;28;45384;-67
2022/11/08 11:22:11;;;;;;;;;3.00;3.00;;;;;-147.14;100.00;58812.66;4999341;28;46215;-67
2022/11/08 11:24:46;;;;;;;;;4.00;3.00;;;;;-147.14;100.00;58812.66;4995513;28;45600;-67
2022/11/08 11:27:28;;;;;;;;;3.75;2.75;;;;;-147.14;100.00;58812.66;4994684;28;45418;-67
2022/11/08 11:30:23;;;;;;;;;3.00;1.75;;;;;-147.14;100.00;58812.66;4994200;28;45356;-68
2022/11/08 11:32:59;;;;;;;;;2.75;2.75;;;;;-147.14;100.00;58812.66;5000193;28;46097;-68
2022/11/08 11:35:30;;;;;;;;;2.75;2.50;;;;;-147.14;100.00;58812.66;4995465;28;45413;-68
2022/11/08 11:37:57;;;;;;;;;2.00;2.00;;;;;-147.14;100.00;58812.66;5000135;28;45662;-68
2022/11/08 11:40:23;;;;;;;;;4.00;3.00;;;;;-147.14;100.00;58812.66;4997701;28;45468;-68
2022/11/08 11:43:21;;;;;;;;;1.50;1.50;;;;;-147.14;100.00;58812.66;5000002;28;45372;-68
2022/11/08 11:45:55;;;;;;;;;1.25;1.25;;;;;-147.14;100.00;58812.66;4998546;28;45480;-68
2022/11/08 11:48:27;;;;;;;;;4.00;2.50;;;;;-147.14;100.00;58812.66;5008941;28;45449;-68
2022/11/08 11:50:52;;;;;;;;;4.00;3.00;;;;;-147.14;100.00;58812.66;4997154;28;45353;-68
2022/11/08 11:53:21;;;;;;;;;5.75;3.00;;;;;-147.14;100.00;58812.66;4999813;28;46083;-68
2022/11/08 11:55:56;;;;;;;;;5.50;2.75;;;;;-147.14;100.00;58812.66;4997524;28;45296;-68
2022/11/08 11:58:58;;;;;;;;;6.50;4.00;;;;;-147.14;100.00;58812.66;5000571;28;45753;-67
2022/11/08 12:01:23;;;;;;;;;4.75;3.50;;;;;-147.14;100.00;58812.66;4994053;28;45508;-68
2022/11/08 12:04:12;;;;;;;;;2.00;2.00;;;;;-147.14;100.00;58812.66;4999615;28;46163;-68
2022/11/08 12:07:18;;;;;;;;;3.25;3.00;;;;;-147.14;100.00;58812.66;4999635;28;45416;-68
2022/11/08 12:09:52;;;;;;;;;1.75;1.75;;;;;-147.14;100.00;58812.66;4995793;28;45484;-67
2022/11/08 12:12:47;;;;;;;;;3.75;3.00;;;;;-147.14;100.00;58812.66;5000051;28;45410;-67
2022/11/08 12:15:32;;;;;;;;;1.50;1.50;;;;;-147.14;100.00;58812.66;4997385;28;45369;-68
2022/11/08 12:18:36;;;;;;;;;5.25;3.00;;;;;-147.14;100.00;58812.66;4999393;28;45534;-67
2022/11/08 12:21:09;;;;;;;;;2.00;2.00;;;;;-147.14;100.00;58812.66;4985630;28;45550;-68
2022/11/08 12:24:14;;;;;;;;;3.75;2.25;;;;;-147.14;100.00;58812.66;4998495;28;45452;-67
2022/11/08 12:26:49;;;;;;;;;5.75;2.75;;;;;-147.14;100.00;58812.66;4996102;28;45435;-68
2022/11/08 12:29:35;;;;;;;;;4.00;2.50;;;;;-147.14;100.00;58812.66;4994883;28;45460;-67
2022/11/08 12:32:12;;;;;;;;;5.00;3.75;;;;;-147.14;100.00;58812.66;4998968;28;45487;-67
2022/11/08 12:35:07;;;;;;;;;2.00;1.75;;;;;-147.14;100.00;58812.66;4999839;28;45487;-68
2022/11/08 12:38:02;;;;;;;;;4.00;3.75;;;;;-147.14;100.00;58812.66;4996922;28;45587;-67
2022/11/08 12:40:47;;;;;;;;;1.50;1.50;;;;;-147.14;100.00;58812.66;5008466;28;45515;-68
2022/11/08 12:43:32;;;;;;;;;2.00;2.00;;;;;-147.14;100.00;58812.66;4997480;28;45462;-68
2022/11/08 12:46:09;;;;;;;;;2.00;2.00;;;;;-147.14;100.00;58812.66;4997990;28;45588;-68
2022/11/08 12:48:53;;;;;;;;;0.75;0.00;;;;;-147.14;100.00;58812.66;4999464;28;46924;-68
2022/11/08 12:51:26;;;;;;;;;3.25;3.25;;;;;-147.14;100.00;58812.66;4998845;28;45440;-68
2022/11/08 12:54:14;;;;;;;;;3.00;3.00;;;;;-147.14;100.00;58812.66;4995530;28;45313;-68
2022/11/08 12:56:47;;;;;;;;;4.00;3.00;;;;;-147.14;100.00;58812.66;4994714;28;45344;-68
2022/11/08 12:59:27;;;;;;;;;7.50;3.00;;;;;-147.14;100.00;58812.66;4999156;28;45390;-67
2022/11/08 13:01:54;;;;;;;;;3.50;3.50;;;;;-147.14;100.00;58812.66;4992842;28;47019;-68
2022/11/08 13:05:04;;;;;;;;;5.50;2.50;;;;;-147.14;100.00;58812.66;4996345;28;45723;-68
2022/11/08 13:07:29;;;;;;;;;4.67;4.00;;;;;-147.14;100.00;58812.66;4934185;28;45470;-68
2022/11/08 13:10:10;;;;;;;;;3.00;1.50;;;;;-147.14;100.00;58812.66;4987837;28;45800;-68
2022/11/08 13:12:58;;;;;;;;;3.33;3.33;;;;;-147.14;100.00;58812.66;4995738;28;45446;-68
2022/11/08 13:15:24;;;;;;;;;2.33;2.33;;;;;-147.14;100.00;58812.66;4992017;28;45384;-68
2022/11/08 13:18:05;;;;;;;;;5.50;2.00;;;;;-147.14;100.00;58812.66;4995222;28;45372;-68
2022/11/08 13:20:38;;;;;;;;;3.25;3.25;;;;;-147.14;100.00;58812.66;4994497;28;46362;-68
2022/11/08 13:23:30;;;;;;;;;4.00;4.00;;;;;-147.14;100.00;58812.66;4988054;28;45499;-68
2022/11/08 13:26:24;;;;;;;;;4.00;4.00;;;;;-147.14;100.00;58812.66;4993491;28;45631;-68
2022/11/08 13:28:50;;;;;;;;;3.00;2.00;;;;;-147.14;100.00;58812.66;4981620;28;45334;-68
2022/11/08 13:31:19;;;;;;;;;4.33;3.00;;;;;-147.14;100.00;58812.66;4992206;28;45356;-68
2022/11/08 13:34:05;;;;;;;;;3.75;2.00;;;;;-147.14;100.00;58812.66;4985390;28;45396;-67
2022/11/08 13:36:36;;;;;;;;;4.00;2.00;;;;;-147.14;100.00;58812.66;4964343;28;45619;-68
2022/11/08 13:39:26;;;;;;;;;2.00;2.00;;;;;-147.14;100.00;58812.66;4997769;28;45356;-68
2022/11/08 13:42:13;;;;;;;;;2.00;2.00;;;;;-147.14;100.00;58812.66;5011285;28;45415;-69
2022/11/08 13:44:54;;;;;;;;;5.75;2.25;;;;;-147.14;100.00;58812.66;4993869;28;46775;-68
2022/11/08 13:47:31;;;;;;;;;3.00;2.00;;;;;-147.14;100.00;58812.66;4975130;28;45591;-68
2022/11/08 13:50:30;;;;;;;;;3.25;2.25;;;;;-147.14;100.00;58812.66;4993867;28;45373;-68
2022/11/08 13:53:23;;;;;;;;;4.00;2.50;;;;;-147.14;100.00;58812.66;4954984;28;46950;-68
2022/11/08 13:55:55;;;;;;;;;2.00;2.00;;;;;-147.14;100.00;58812.66;4992009;28;45742;-68
2022/11/08 13:58:36;;;;;;;;;2.50;2.50;;;;;-147.14;100.00;58812.66;4991338;28;45397;-68
2022/11/08 14:01:22;;;;;;;;;2.25;2.25;;;;;-147.14;100.00;58812.66;4996767;28;45402;-68
2022/11/08 14:03:47;;;;;;;;;4.25;3.25;;;;;-147.14;100.00;58812.66;4973788;28;45437;-67
2022/11/08 14:06:18;;;;;;;;;3.00;2.75;;;;;-147.14;100.00;58812.66;4998391;28;45384;-68
2022/11/08 14:09:02;;;;;;;;;2.00;2.00;;;;;-147.14;100.00;58812.66;4995268;28;45439;-68
2022/11/08 14:11:37;;;;;;;;;3.00;3.00;;;;;-147.14;100.00;58812.66;4978068;28;45523;-67
2022/11/08 14:14:11;;;;;;;;;3.25;2.00;;;;;-147.14;100.00;58812.66;4997667;28;45555;-68
2022/11/08 14:16:58;;;;;;;;;2.00;2.00;;;;;-147.14;100.00;58812.66;5004360;28;45374;-68
2022/11/08 14:19:26;;;;;;;;;5.25;2.00;;;;;-147.14;100.00;58812.66;4991554;28;45504;-68
2022/11/08 14:21:56;;;;;;;;;5.50;2.75;;;;;-147.14;100.00;58812.66;4996583;28;45578;-68
2022/11/08 14:24:27;;;;;;;;;2.00;2.00;;;;;-147.14;100.00;58812.66;5006155;28;45416;-68
2022/11/08 14:26:53;;;;;;;;;2.00;2.00;;;;;-147.14;100.00;58812.66;5003440;28;45455;-68
2022/11/08 14:29:21;;;;;;;;;2.00;2.00;;;;;-147.14;100.00;58812.66;4996603;28;45392;-68
2022/11/08 14:31:47;;;;;;;;;3.00;3.00;;;;;-147.14;100.00;58812.66;4997614;28;45298;-67
2022/11/08 14:34:36;;;;;;;;;2.00;2.00;;;;;-147.14;100.00;58812.66;4997829;28;45551;-67
2022/11/08 14:37:02;;;;;;;;;2.00;2.00;;;;;-147.14;100.00;58812.66;4988390;28;45574;-67
2022/11/08 14:39:32;;;;;;;;;4.00;2.50;;;;;-147.14;100.00;58812.66;4996696;28;45602;-69
2022/11/08 14:42:00;;;;;;;;;4.00;3.00;;;;;-147.14;100.00;58812.66;4997374;28;45551;-68
2022/11/08 14:44:27;;;;;;;;;2.00;2.00;;;;;-147.14;100.00;58812.66;4997969;28;46262;-68
2022/11/08 14:46:52;;;;;;;;;4.00;2.00;;;;;-147.14;100.00;58812.66;4997672;28;45560;-67
2022/11/08 14:49:29;;;;;;;;;0.75;0.00;;;;;-147.14;100.00;58812.66;4996778;28;45386;-68
2022/11/08 14:52:12;;;;;;;;;3.75;2.25;;;;;-147.14;100.00;58812.66;4997160;28;45385;-68
2022/11/08 14:54:40;;;;;;;;;2.00;2.00;;;;;-147.14;100.00;58812.66;4997640;28;47134;-68
2022/11/08 14:57:26;;;;;;;;;2.00;1.75;;;;;-147.14;100.00;58812.66;4997710;28;45390;-68
2022/11/08 14:59:51;;;;;;;;;2.00;2.00;;;;;-147.14;100.00;58812.66;4995642;28;45369;-68
2022/11/08 15:02:17;;;;;;;;;4.00;2.25;;;;;-147.14;100.00;58812.66;4995448;28;45891;-68
2022/11/08 15:04:42;;;;;;;;;0.00;0.00;;;;;-147.14;100.00;58812.66;4997384;28;69418;-68
2022/11/08 15:07:07;;;;;;;;;4.25;2.75;;;;;-147.14;100.00;58812.66;4998485;28;59706;-69
2022/11/08 15:09:34;;;;;;;;;2.00;2.00;;;;;-147.14;100.00;58812.66;4991530;28;60275;-67
2022/11/08 15:12:05;;;;;;;;;4.00;2.00;;;;;-147.14;100.00;58812.66;5000031;28;60448;-67
2022/11/08 15:14:35;;;;;;;;;1.00;1.00;;;;;-147.14;100.00;58812.66;5000969;28;45313;-68
2022/11/08 15:17:00;;;;;;;;;3.00;2.25;;;;;-147.14;100.00;58812.66;5000522;28;45426;-67
2022/11/08 15:19:34;;;;;;;;;3.50;2.75;;;;;-147.14;100.00;58812.66;5001010;28;45499;-68
2022/11/08 15:22:02;;;;;;;;;3.00;3.00;;;;;-147.14;100.00;58812.66;4982024;28;45591;-68
2022/11/08 15:24:36;;;;;;;;;3.75;2.00;;;;;-147.14;100.00;58812.66;4999236;28;46197;-68
2022/11/08 15:27:10;;;;;;;;;4.00;2.50;;;;;-147.14;100.00;58812.66;5000389;28;45447;-67
2022/11/08 15:30:00;;;;;;;;;1.00;1.00;;;;;-147.14;100.00;58812.66;4989841;28;45467;-68
2022/11/08 15:32:25;;;;;;;;;4.25;3.00;;;;;-147.14;100.00;58812.66;4996940;28;45444;-67
2022/11/08 15:34:55;;;;;;;;;2.00;2.00;;;;;-147.14;100.00;58812.66;4999609;28;56516;-68
2022/11/08 15:37:27;;;;;;;;;3.00;1.75;;;;;-147.14;100.00;58812.66;4997325;28;45496;-68
2022/11/08 15:39:53;;;;;;;;;2.75;2.00;;;;;-147.14;100.00;58812.66;4995494;28;45805;-68
2022/11/08 15:42:19;;;;;;;;;4.00;3.00;;;;;-147.14;100.00;58812.66;5000517;28;45460;-68
2022/11/08 15:45:16;;;;;;;;;4.00;4.00;;;;;-147.14;100.00;58812.66;4998689;28;46954;-68
2022/11/08 15:47:42;;;;;;;;;2.25;2.00;;;;;-147.14;100.00;58812.66;4992720;28;45506;-68
2022/11/08 15:50:22;;;;;;;;;3.50;3.00;;;;;-147.14;100.00;58812.66;4988137;28;45428;-68
2022/11/08 15:52:53;;;;;;;;;2.25;2.25;;;;;-147.14;100.00;58812.66;4989652;28;45495;-68
2022/11/08 15:55:30;;;;;;;;;5.25;2.75;;;;;-147.14;100.00;58812.66;4991008;28;46346;-67
2022/11/08 15:57:57;;;;;;;;;3.00;2.00;;;;;-147.14;100.00;58812.66;4995350;28;45412;-68
2022/11/08 16:00:24;;;;;;;;;2.00;2.00;;;;;-147.14;100.00;58812.66;4994646;28;45775;-68
2022/11/08 16:02:51;;;;;;;;;4.00;3.00;;;;;-147.14;100.00;58812.66;4990283;28;45334;-68
2022/11/08 16:05:22;;;;;;;;;5.50;2.00;;;;;-147.14;100.00;58812.66;4989946;28;46429;-68
2022/11/08 16:07:48;;;;;;;;;6.25;3.75;;;;;-147.14;100.00;58812.66;4995788;28;45650;-68
2022/11/08 16:10:16;;;;;;;;;9.33;3.00;;;;;-147.14;100.00;58812.66;4993238;28;45454;-68
2022/11/08 16:12:43;;;;;;;;;2.75;2.75;;;;;-147.14;100.00;58812.66;4992540;28;45675;-68
2022/11/08 16:15:14;;;;;;;;;4.00;1.50;;;;;-147.14;100.00;58812.66;4990094;28;45486;-68
2022/11/08 16:17:39;;;;;;;;;1.50;1.00;;;;;-147.14;100.00;58812.66;4995117;28;45335;-68
2022/11/08 16:20:23;;;;;;;;;2.75;2.00;;;;;-147.14;100.00;58812.66;4989296;28;45404;-68
2022/11/08 16:22:49;;;;;;;;;2.00;2.00;;;;;-147.14;100.00;58812.66;4998073;28;45369;-68
2022/11/08 16:25:14;;;;;;;;;2.33;1.00;;;;;-147.14;100.00;58812.66;4995217;28;45467;-68
2022/11/08 16:27:40;;;;;;;;;4.00;2.33;;;;;-147.14;100.00;58812.66;4994163;28;52822;-68
2022/11/08 16:30:13;;;;;;;;;3.50;3.00;;;;;-147.14;100.00;58812.66;4993076;28;45663;-68
2022/11/08 16:32:39;;;;;;;;;5.00;4.00;;;;;-147.14;100.00;58812.66;4985409;28;45605;-68
2022/11/08 16:35:05;;;;;;;;;2.50;2.00;;;;;-147.14;100.00;58812.66;4992143;28;45833;-68
2022/11/08 16:37:30;;;;;;;;;2.00;2.00;;;;;-147.14;100.00;58812.66;4988899;28;45790;-68
2022/11/08 16:39:56;;;;;;;;;3.50;2.00;;;;;-147.14;100.00;58812.66;4995153;28;55733;-71
2022/11/08 16:42:21;;;;;;;;;2.67;1.00;;;;;-147.14;100.00;58812.66;5009153;28;45556;-71
2022/11/08 16:44:46;;;;;;;;;4.25;2.75;;;;;-147.14;100.00;58812.66;4996245;28;70395;-71
2022/11/08 16:47:17;;;;;;;;;2.33;2.33;;;;;-147.14;100.00;58812.66;4998056;28;72307;-72
2022/11/08 16:49:42;;;;;;;;;4.00;2.00;;;;;-147.14;100.00;58812.66;4995325;28;45526;-72
2022/11/08 16:52:10;;;;;;;;;3.25;1.75;;;;;-147.14;100.00;58812.66;4990992;28;62091;-70
2022/11/08 16:54:36;;;;;;;;;3.00;2.00;;;;;-147.14;100.00;58812.66;4995292;28;47102;-70
2022/11/08 16:57:01;;;;;;;;;3.75;2.75;;;;;-147.14;100.00;58812.66;4983707;28;64649;-70
2022/11/08 16:59:26;;;;;;;;;2.00;2.00;;;;;-147.14;100.00;58812.66;4995553;28;66427;-70